Latest Weather Observations for Douglas River

IDD60801

Issued at 9:31 pm CST Sunday 19 November 2017 (issued every 30 minutes, with the page automatically refreshed every 10 minutes)

About weather observations | Map of weather stations | Latest weather observations for NT | Other Formats
Station Details ID: 014901 Name: DOUGLAS RIVER RESEARCH FARM Lat: -13.83 Lon: 131.19 Height: 42.8 m
Data from the previous 72 hours. | See also: Recent months at Douglas River
Date/Time
CST
Temp
°C
App
Temp
°C
Dew
Point
°C
Rel
Hum
%
Delta-T
°C
Wind Press
QNH
hPa
Press
MSL
hPa
Rain since
9am
mm
Dir  Spd
km/h
Gust
km/h
Spd
kts
Gust
kts
19/09:30pm 24.5 27.7 21.6 84 1.9 WNW 7 11 4 6 1009.4 1009.1 0.0
19/09:00pm 24.8 26.5 21.7 83 2.1 NNW 15 24 8 13 1009.6 1009.3 0.0
19/08:30pm 26.7 29.2 22.5 78 2.8 NNE 13 24 7 13 1009.8 1009.5 0.0
19/08:00pm 29.2 33.7 23.9 73 3.7 NNE 7 9 4 5 1008.5 1008.2 0.0
19/07:30pm 29.7 33.6 23.6 69 4.2 NW 9 15 5 8 1007.4 1007.0 0.0
19/07:00pm 30.3 33.5 23.7 68 4.6 NW 13 20 7 11 1006.6 1006.2 0.0
19/06:30pm 32.8 37.0 21.0 50 8.0 CALM 0 0 0 0 1005.9 1005.5 0.0
19/06:00pm 34.7 38.6 20.3 43 9.7 CALM 0 6 0 3 1005.6 1005.2 0.0
19/05:30pm 35.3 38.1 20.8 42 9.8 NNE 7 9 4 5 1005.4 1005.0 0.0
19/05:00pm 35.4 37.5 20.1 40 10.2 NNW 9 15 5 8 1005.4 1005.0 0.0
19/04:30pm 35.4 37.5 20.1 40 10.3 N 9 17 5 9 1005.3 1004.9 0.0
19/04:00pm 35.5 37.2 20.2 40 10.3 N 11 15 6 8 1005.7 1005.3 0.0
19/03:30pm 35.5 38.6 21.4 44 9.6 NE 7 11 4 6 1005.8 1005.4 0.0
19/03:00pm 35.2 38.5 21.8 45 9.2 NNE 7 15 4 8 1006.1 1005.7 0.0
19/02:30pm 34.9 38.0 22.2 47 8.7 NW 9 15 5 8 1006.5 1006.1 0.0
19/02:00pm 34.9 38.0 22.2 47 8.7 NNW 9 13 5 7 1007.1 1006.7 0.0
19/01:30pm 34.5 39.1 24.1 54 7.3 NW 7 15 4 8 1007.5 1007.1 0.0
19/01:00pm 34.4 38.4 23.1 51 7.8 NE 7 15 4 8 1008.3 1008.0 0.0
19/12:30pm 33.8 37.1 22.6 52 7.7 NE 9 20 5 11 1008.6 1008.3 0.0
19/12:00pm 34.3 38.4 23.9 54 7.3 ESE 9 15 5 8 1009.0 1008.7 0.0
19/11:30am 32.8 37.0 23.4 57 6.5 E 7 13 4 7 1009.4 1009.1 0.0
19/11:00am 31.1 34.8 23.2 63 5.4 SSW 9 13 5 7 1009.9 1009.6 0.0
19/10:30am 31.2 35.8 23.8 64 5.1 NNE 6 9 3 5 1010.2 1009.9 0.0
19/10:00am 30.6 34.7 23.0 64 5.2 ENE 6 9 3 5 1010.1 1009.8 0.0
19/09:30am 29.5 34.0 23.9 72 3.9 SSE 7 9 4 5 1010.3 1010.0 0.0
19/09:00am 28.7 33.2 24.0 76 3.3 SE 7 11 4 6 1010.1 1009.8 0.0
19/08:30am 27.3 31.7 24.4 84 2.0 SE 9 11 5 6 1009.9 1009.6 0.0
19/08:00am 26.1 30.4 24.3 90 1.2 ESE 9 11 5 6 1009.9 1009.6 0.0
19/07:30am 25.4 29.9 24.0 92 1.0 ESE 7 9 4 5 1009.7 1009.4 0.0
19/07:00am 25.3 30.0 24.3 94 0.7 ESE 7 9 4 5 1009.6 1009.3 0.0
19/06:30am 24.9 30.3 23.9 94 0.7 NE 2 6 1 3 1009.0 1008.7 0.0
19/06:00am 24.8 29.5 23.9 95 0.6 NE 6 7 3 4 1008.5 1008.2 0.0
19/05:30am 24.7 29.2 23.7 94 0.7 NE 6 9 3 5 1008.1 1007.8 0.0
19/05:00am 25.0 30.6 23.6 92 1.0 CALM 0 0 0 0 1007.3 1006.9 0.0
19/04:30am 25.0 30.6 23.6 92 1.0 CALM 0 0 0 0 1007.6 1007.2 0.0
19/04:00am 25.2 29.7 23.6 91 1.1 WSW 6 7 3 4 1007.7 1007.3 0.0
19/03:30am 25.1 28.9 23.5 91 1.1 SW 9 11 5 6 1007.8 1007.4 0.0
19/03:00am 25.4 31.0 23.5 89 1.3 CALM 0 0 0 0 1008.1 1007.8 0.0
19/02:30am 25.5 30.9 23.2 87 1.6 CALM 0 0 0 0 1008.6 1008.3 0.0
19/02:00am 25.6 29.0 23.3 87 1.6 ESE 11 15 6 8 1009.0 1008.7 0.0
19/01:30am 26.1 30.1 23.8 87 1.6 ENE 9 17 5 9 1009.4 1009.1 0.0
19/01:00am 26.8 31.1 23.7 83 2.1 ENE 7 13 4 7 1010.0 1009.7 0.0
19/12:30am 26.8 32.1 24.3 86 1.7 E 4 9 2 5 1009.8 1009.5 0.0
19/12:00am 27.2 32.2 23.9 82 2.3 NNW 4 6 2 3 1009.6 1009.3 0.0
 
Date/Time
CST
Temp
°C
App
Temp
°C
Dew
Point
°C
Rel
Hum
%
Delta-T
°C
Wind Press
QNH
hPa
Press
MSL
hPa
Rain since
9am
mm
Dir  Spd
km/h
Gust
km/h
Spd
kts
Gust
kts
18/11:30pm 27.4 32.3 24.3 83 2.2 NNW 6 9 3 5 1009.8 1009.5 0.0
18/11:00pm 27.0 31.1 24.6 87 1.7 ESE 11 13 6 7 1009.8 1009.5 0.0
18/10:30pm 27.1 33.3 24.6 86 1.7 CALM 0 0 0 0 1009.3 1009.0 0.0
18/10:00pm 26.9 32.7 24.0 84 2.0 CALM 0 0 0 0 1008.8 1008.5 0.0
18/09:30pm 27.2 33.0 23.9 82 2.3 CALM 0 0 0 0 1008.4 1008.1 0.0
18/09:00pm 26.6 31.0 23.5 83 2.1 WNW 6 9 3 5 1008.0 1007.7 0.0
18/08:30pm 26.7 30.9 23.2 81 2.4 NNE 6 9 3 5 1007.5 1007.1 0.0
18/08:00pm 26.5 31.4 23.0 81 2.4 NNE 2 13 1 7 1006.9 1006.5 0.0
18/07:30pm 26.9 30.9 22.7 78 2.9 ENE 6 9 3 5 1006.4 1006.0 0.0
18/07:00pm 27.5 31.7 23.1 77 3.0 ESE 6 7 3 4 1006.4 1006.0 0.0
18/06:30pm 27.3 31.2 22.5 75 3.3 ENE 6 7 3 4 1006.2 1005.8 0.0
18/06:00pm 26.3 27.4 22.4 79 2.6 ENE 20 26 11 14 1006.5 1006.1 0.0
18/05:30pm 29.8 29.8 20.9 59 5.9 ENE 22 39 12 21 1006.0 1005.6 0.0
18/05:18pm 31.9 32.5 19.5 47 8.2 ENE 15 41 8 22 1005.8 1005.4 0.0
18/05:00pm 34.8 37.7 21.1 44 9.3 NNE 7 13 4 7 1005.3 1004.9 0.0
18/04:30pm 34.4 37.7 21.4 46 8.8 NE 6 7 3 4 1005.0 1004.6 0.0
18/04:00pm 34.8 37.5 20.7 43 9.5 NE 7 13 4 7 1005.3 1004.9 0.0
18/03:30pm 35.0 37.2 20.5 42 9.8 ENE 9 15 5 8 1005.4 1005.0 0.0
18/03:00pm 36.0 39.5 22.2 45 9.5 ENE 7 17 4 9 1005.9 1005.5 0.0
18/02:30pm 35.5 38.6 22.1 45 9.2 ENE 9 13 5 7 1006.2 1005.8 0.0
18/02:00pm 34.8 37.2 21.5 46 9.1 NE 11 19 6 10 1006.9 1006.5 0.0
18/01:30pm 35.3 37.5 21.9 45 9.2 E 13 20 7 11 1007.5 1007.1 0.0
18/01:00pm 33.9 36.5 22.0 49 8.1 ENE 11 20 6 11 1008.0 1007.7 0.0
18/12:30pm 33.2 36.3 22.9 54 7.1 ENE 11 22 6 12 1008.6 1008.3 0.0
18/12:00pm 33.0 35.4 21.5 50 7.8 ENE 11 15 6 8 1009.1 1008.8 0.0
18/11:30am 32.8 35.4 22.6 55 7.0 ESE 13 20 7 11 1009.5 1009.2 0.0
18/11:00am 32.2 34.8 22.6 57 6.6 ESE 13 22 7 12 1009.8 1009.5 0.0
18/10:30am 30.8 34.3 22.9 62 5.4 SE 9 15 5 8 1010.2 1009.9 0.0
18/10:00am 30.8 36.2 25.2 72 4.0 ESE 6 11 3 6 1010.4 1010.1 0.0
18/09:30am 29.2 33.5 23.6 72 3.9 E 7 13 4 7 1010.4 1010.1 0.0
18/09:00am 28.5 33.1 24.1 77 3.1 E 7 11 4 6 1010.4 1010.1 2.4
18/08:30am 27.8 32.6 24.2 81 2.5 E 6 11 3 6 1010.5 1010.2 2.4
18/08:00am 26.3 30.1 23.4 84 2.0 ESE 9 13 5 7 1010.0 1009.7 2.4
18/07:30am 26.0 30.5 23.7 87 1.6 E 6 9 3 5 1009.6 1009.3 2.4
18/07:00am 24.7 28.9 23.1 91 1.1 ENE 6 7 3 4 1009.1 1008.8 2.4
18/06:30am 23.9 29.2 23.0 95 0.6 CALM 0 0 0 0 1008.5 1008.2 2.4
18/06:00am 23.9 28.4 23.0 95 0.6 NNE 4 7 2 4 1008.0 1007.7 2.4
18/05:30am 24.1 28.7 23.2 95 0.6 NNE 4 7 2 4 1008.1 1007.8 2.4
18/05:00am 24.3 29.6 23.1 93 0.8 CALM 0 0 0 0 1007.8 1007.4 2.4
18/04:30am 24.4 29.9 23.4 94 0.7 CALM 0 4 0 2 1007.7 1007.3 2.4
18/04:00am 24.5 29.8 23.1 92 0.9 CALM 0 0 0 0 1007.9 1007.6 2.4
18/03:30am 24.6 30.0 23.2 92 1.0 CALM 0 0 0 0 1008.2 1007.9 2.4
18/03:00am 24.6 29.9 23.0 91 1.1 CALM 0 0 0 0 1008.1 1007.8 2.4
18/02:30am 24.6 28.1 22.8 90 1.2 SW 9 9 5 5 1008.5 1008.2 2.2
18/02:00am 24.8 29.5 23.4 92 1.0 SW 4 7 2 4 1009.3 1009.0 2.2
18/01:30am 24.9 28.4 23.5 92 1.0 W 11 15 6 8 1009.7 1009.4 2.2
18/01:00am 24.9 29.2 23.7 93 0.8 SSW 7 9 4 5 1010.4 1010.1 2.2
18/12:30am 24.8 29.2 23.8 94 0.7 SSW 7 9 4 5 1011.0 1010.7 2.2
18/12:00am 24.8 28.7 23.6 93 0.8 S 9 15 5 8 1011.3 1011.0 2.2
 
Date/Time
CST
Temp
°C
App
Temp
°C
Dew
Point
°C
Rel
Hum
%
Delta-T
°C
Wind Press
QNH
hPa
Press
MSL
hPa
Rain since
9am
mm
Dir  Spd
km/h
Gust
km/h
Spd
kts
Gust
kts
17/11:30pm 24.6 28.8 23.4 93 0.8 N 7 9 4 5 1010.7 1010.4 2.2
17/11:00pm 24.7 29.4 23.3 92 1.0 NNW 4 11 2 6 1010.3 1010.0 2.2
17/10:30pm 24.8 28.7 23.6 93 0.8 S 9 11 5 6 1009.9 1009.6 2.2
17/10:00pm 25.0 28.8 23.4 91 1.1 ESE 9 13 5 7 1010.1 1009.8 2.0
17/09:30pm 24.8 28.8 23.8 94 0.7 NE 9 20 5 11 1009.7 1009.4 1.6
17/09:00pm 25.9 27.8 22.8 83 2.1 NNW 17 26 9 14 1008.5 1008.2 0.0
17/08:30pm 29.1 31.1 20.8 61 5.5 NE 11 20 6 11 1008.9 1008.6 0.0
17/08:00pm 30.7 34.0 21.8 59 6.0 N 7 11 4 6 1007.7 1007.3 0.0
17/07:30pm 30.9 34.2 21.9 58 6.1 N 7 9 4 5 1006.9 1006.5 0.0
17/07:00pm 31.3 34.2 21.8 57 6.4 N 9 15 5 8 1006.5 1006.1 0.0
17/06:30pm 32.1 35.3 21.6 53 7.1 N 7 11 4 6 1006.1 1005.7 0.0
17/06:00pm 33.2 36.9 22.3 52 7.5 N 6 7 3 4 1005.9 1005.5 0.0
17/05:30pm 33.3 36.1 20.8 48 8.4 NNE 7 9 4 5 1005.5 1005.1 0.0
17/05:00pm 34.3 36.1 19.5 41 9.8 NNE 9 15 5 8 1005.2 1004.8 0.0
17/04:30pm 34.5 36.6 20.1 43 9.6 NNE 9 15 5 8 1005.0 1004.6 0.0
17/04:00pm 35.3 37.5 20.4 41 10.0 NNE 9 15 5 8 1005.2 1004.8 0.0
17/03:30pm 34.9 37.5 21.2 45 9.3 NNE 9 13 5 7 1005.5 1005.1 0.0
17/03:00pm 35.4 37.1 20.9 42 9.8 E 13 22 7 12 1005.9 1005.5 0.0
17/02:30pm 34.7 36.5 19.5 40 10.1 E 9 19 5 10 1006.2 1005.8 0.0
17/02:00pm 34.9 35.6 19.7 41 10.1 E 15 20 8 11 1006.8 1006.4 0.0
17/01:30pm 34.2 37.4 21.6 47 8.6 ENE 7 15 4 8 1007.3 1006.9 0.0
17/01:00pm 33.6 36.8 22.4 52 7.7 NNE 9 11 5 6 1007.8 1007.4 0.0
17/12:30pm 32.9 36.5 23.0 56 6.8 N 9 15 5 8 1008.3 1008.0 0.0
17/12:00pm 32.1 35.6 21.9 54 6.9 NW 6 11 3 6 1008.9 1008.6 0.0
17/11:30am 31.6 35.3 23.2 61 5.8 SW 9 13 5 7 1009.2 1008.9 0.0
17/11:00am 30.9 35.3 23.8 66 4.9 SSE 7 13 4 7 1009.3 1009.0 0.0
17/10:30am 29.3 33.8 24.0 73 3.7 S 7 13 4 7 1009.8 1009.5 0.0
17/10:00am 28.4 32.8 23.8 76 3.2 ESE 7 11 4 6 1010.1 1009.8 0.0
17/09:30am 27.4 30.7 23.2 78 2.9 SE 11 15 6 8 1010.1 1009.8 0.0
17/09:00am 27.2 31.1 24.3 84 2.0 SSE 11 13 6 7 1009.7 1009.4 2.8
17/08:30am 27.0 31.1 23.0 79 2.7 SSE 6 6 3 3 1010.0 1009.7 2.8
17/08:00am 26.4 29.6 23.1 82 2.2 ESE 11 15 6 8 1010.1 1009.8 2.8
17/07:30am 26.0 30.3 23.3 85 1.8 ENE 6 9 3 5 1010.0 1009.7 2.8
17/07:00am 25.1 30.7 23.5 91 1.1 CALM 0 0 0 0 1009.7 1009.4 2.8
17/06:30am 24.1 29.1 23.2 95 0.6 E 2 6 1 3 1009.5 1009.2 2.8
17/06:00am 24.1 28.2 23.2 95 0.6 ESE 7 9 4 5 1009.4 1009.1 2.8
17/05:30am 24.1 28.7 23.1 94 0.7 ESE 4 7 2 4 1009.3 1009.0 2.8
17/05:00am 24.2 28.8 23.2 94 0.7 ENE 4 7 2 4 1009.1 1008.8 2.8
17/04:30am 24.2 29.6 23.2 94 0.7 CALM 0 0 0 0 1009.0 1008.7 2.8
17/04:00am 24.3 29.5 22.9 92 0.9 CALM 0 2 0 1 1009.2 1008.9 2.8
17/03:30am 24.6 28.7 23.0 91 1.1 ESE 6 7 3 4 1009.0 1008.7 2.8
17/03:00am 24.8 29.4 23.2 91 1.1 ENE 4 7 2 4 1009.2 1008.9 2.8
17/02:30am 24.7 28.3 23.1 91 1.1 SSE 9 13 5 7 1009.2 1008.9 2.8
17/02:00am 24.8 28.6 23.4 92 1.0 SE 9 11 5 6 1009.5 1009.2 2.8
17/01:30am 24.9 27.5 23.3 91 1.1 SE 15 20 8 11 1010.0 1009.7 2.8
17/01:00am 25.3 28.9 23.7 91 1.1 ESE 11 15 6 8 1010.3 1010.0 2.8
17/12:30am 24.9 28.5 23.7 93 0.8 SSE 11 15 6 8 1010.2 1009.9 2.8
17/12:00am 24.9 28.6 23.9 94 0.7 SSE 11 15 6 8 1010.4 1010.1 2.8
 
Date/Time
CST
Temp
°C
App
Temp
°C
Dew
Point
°C
Rel
Hum
%
Delta-T
°C
Wind Press
QNH
hPa
Press
MSL
hPa
Rain since
9am
mm
Dir  Spd
km/h
Gust
km/h
Spd
kts
Gust
kts
16/11:30pm 25.0 29.2 24.1 95 0.6 S 9 13 5 7 1010.0 1009.7 2.8
16/11:00pm 25.2 30.0 24.2 94 0.7 WSW 6 9 3 5 1009.2 1008.9 2.8
16/10:30pm 25.1 29.8 23.9 93 0.8 SW 6 11 3 6 1009.4 1009.1 2.6
16/10:00pm 25.1 30.7 23.5 91 1.1 CALM 0 0 0 0 1009.2 1008.9 2.0

Other Formats:

Comma delimited format used in spreadsheet applications
http://www.bom.gov.au/fwo/IDD60801/IDD60801.94128.axf

JavaScript Object Notation format (JSON) in row-major order
http://www.bom.gov.au/fwo/IDD60801/IDD60801.94128.json